Cave Springs, AR (72718)

4:04 AM CDT on August 05, 2015 (GMT -0500)
Possum Oaks | | Change Station
CLOSE
Current Station
Personal Weather Station
Location: Cave Springs, AR
Elevation: 1204 ft
Nearby Weather Stations

Elev 1204 ft 36.26 °N, 94.22 °W | Updated 26 seconds ago

Mostly Cloudy
Mostly Cloudy
73.8 °F
Feels Like 73 °F
N
0.0
Wind Variable Wind from North
Gusts 0.0 mph

Today
High -- | Low -- °F
--% Chance of Precip.
Yesterday
High -- | Low -- °F
Precip. -- in
6:26 AM 8:18 PM
Waning Gibbous, 69% visible
Pressure 29.97 in
Visibility 10.0 miles
Clouds Few 7000 ft
Heat Index 73 °F
Dew Point 70 °F
Humidity 87%
Rainfall 0.00 in
Snow Depth Not available.
UV 0 out of 12
Pollen 5.70 out of 12
Air Quality Not available.
Flu Activity Not available.
METAR KVBT 050855Z AUTO 15005KT 10SM FEW070 22/19 A2997 RMK AO1 57007

More Conditions Fewer Conditions

Pressure 29.97 in
Visibility 10.0 miles
Clouds Few 7000 ft
Heat Index 73 °F
Dew Point 70 °F
Humidity 87%
Rainfall 0.00 in
Snow Depth Not available.
UV 0 out of 12
Pollen 5.70 out of 12
Air Quality Not available.
Flu Activity Not available.
METAR KVBT 050855Z AUTO 15005KT 10SM FEW070 22/19 A2997 RMK AO1 57007

More Conditions Fewer Conditions

Nowcast | as of 3:46 am CDT on August 5, 2015

At 3:45 am...National Weather Service Doppler radar detected widely scattered showers and thunderstorms over Craig County...moving east at 20 mph. Additional isolated showers were developing across northwest Arkansas. Through 5:00 am...widely scattered showers and thunderstorms over Craig County will move east into Ottawa County. Brief heavy rain and dangerous lightning will be possible with these storms. Additional showers and thunderstorms are expected to develop across far northeast Oklahoma and northwest Arkansas through the morning hours.

×

10-Day Weather Forecast

×

Almanac

Astronomy

Aug. 05, 2015 Rise Set
Actual Time
Civil Twilight
Nautical Twilight
Astronomical Twilight
Moon
Length of Visible Light
Length of Day
Tomorrow will be .
, % of the Moon is Illuminated

Today's Extremes

State Highs State Lows

Community

WunderPhotos

Upload Photos

1,844,105 photos uploaded!

WunderBlogs® & News

Nearby

Air Quality

  Air Quality AQ Index Pollutant
Not available.

Snow Depth

Station Depth Elevation

Earthquake Activity

City Distance Mag. Time & Date
Minimum magnitude displayed is 2.5.

Coastal Water Temperatures

Place Temperature

Stations

Nearby Weather Stations

Station Location Temp. Windchill Dew Point Humidity Wind Precip. Elev Updated Type